Selawik, AK

5:49 AM AKDT on September 18, 2014 (GMT -0800)
Selawik | Change Station
CLOSE
Current Station
Airport
Location: Selawik,
Elevation: 26 ft
Nearby Weather Stations

Elev 26 ft 66.60 °N, 159.99 °W | Updated 13 minutes ago

Overcast
Overcast
46 °F
Feels Like 43 °F
N
7
Wind Variable Wind from NNE

Today
High -- | Low -- °F
--% Chance of Precip.
Yesterday
High -- | Low -- °F
Precip. -- in
8:09 AM 8:56 PM
Waning Crescent, 27% visible
Pressure 29.30 in
Visibility 10.0 miles
Clouds Overcast 12000 ft
Windchill 43 °F
Dew Point 41 °F
Humidity 81%
Rainfall 0.00 in
Snow Depth 109 in , 0 in , 1 in
UV 0 out of 12
Pollen Not available.
Air Quality Not available.
Flu Activity Not available.
METAR PASK 181336Z AUTO 02006KT 10SM OVC120 08/05 A2930 RMK AO1

More Conditions Fewer Conditions

Pressure 29.30 in
Visibility 10.0 miles
Clouds Overcast 12000 ft
Windchill 43 °F
Dew Point 41 °F
Humidity 81%
Rainfall 0.00 in
Snow Depth 109 in , 0 in , 1 in
UV 0 out of 12
Pollen Not available.
Air Quality Not available.
Flu Activity Not available.
METAR PASK 181336Z AUTO 02006KT 10SM OVC120 08/05 A2930 RMK AO1

More Conditions Fewer Conditions

10-Day Weather Forecast

Almanac

Astronomy

Sep. 18, 2014 Rise Set
Actual Time 8:09 AM AKDT 8:56 PM AKDT
Civil Twilight 7:16 AM AKDT 9:49 PM AKDT
Nautical Twilight 6:08 AM AKDT 10:56 PM AKDT
Astronomical Twilight 4:41 AM AKDT 12:21 AM AKDT
Moon 1:26 AM AKDT 7:25 PM AKDT
Length of Visible Light 14h 33m
Length of Day
12h 46m
Tomorrow will be 7m 13s shorter.
Waning Crescent, 27% of the Moon is Illuminated
Today
Waning Crescent
Sep 24
New
Oct 1
First Quarter
Oct 8
Full
Oct 15
Last Quarter

Today's Extremes

State Highs State Lows

Community

WunderPhotos

Upload Photos

1,754,347 photos uploaded!

Nearby

Snow Depth

Station Depth Elevation
Susitna Valley High 109 in 375 ft
Long Lake 0 in 820 ft
Mcneil Canyon 1 in 1320 ft
Imnaviat Creek 6 in 3050 ft
Grouse Creek Divide 0 in 700 ft

Earthquake Activity

City Distance Mag. Time & Date
No recent earthquake activity has been reported nearby.
Minimum magnitude displayed is 2.5.

Coastal Water Temperatures

Place Temperature
No Stations Reporting

Nearby Weather Stations